createdAt,value
2023-05-15T00:02:24.259Z,4.53
2023-05-15T00:04:53.384Z,5.00
2023-05-15T00:07:21.219Z,5.27
2023-05-15T00:09:48.937Z,5.00
2023-05-15T00:12:16.661Z,5.30
2023-05-15T00:14:44.426Z,4.83
2023-05-15T00:17:12.536Z,4.60
2023-05-15T00:19:40.316Z,4.83
2023-05-15T00:22:09.523Z,4.93
2023-05-15T00:24:37.286Z,4.60
2023-05-15T00:27:05.497Z,5.07
2023-05-15T00:29:33.230Z,4.90
2023-05-15T00:32:00.936Z,4.73
2023-05-15T00:34:28.651Z,5.30
2023-05-15T00:36:56.389Z,5.30
2023-05-15T00:39:25.440Z,4.80
2023-05-15T00:41:53.344Z,5.27
2023-05-15T00:44:22.566Z,5.37
2023-05-15T00:46:51.162Z,5.23
2023-05-15T00:49:19.767Z,5.50
2023-05-15T00:51:47.582Z,4.83
2023-05-15T00:54:16.244Z,5.60
2023-05-15T00:56:46.933Z,5.60
2023-05-15T00:59:14.847Z,5.90
2023-05-15T01:01:45.189Z,6.00
2023-05-15T01:04:13.224Z,6.27
2023-05-15T01:06:40.996Z,5.50
2023-05-15T01:09:09.748Z,5.90
2023-05-15T01:11:39.335Z,6.50
2023-05-15T01:14:09.611Z,5.90
2023-05-15T01:16:37.804Z,6.23
2023-05-15T01:19:06.207Z,6.10
2023-05-15T01:22:11.755Z,6.00
2023-05-15T01:24:59.552Z,6.40
2023-05-15T01:27:34.210Z,5.70
2023-05-15T01:30:08.970Z,6.30
2023-05-15T01:32:44.427Z,6.13
2023-05-15T01:35:17.356Z,6.00
2023-05-15T01:37:50.316Z,5.53
2023-05-15T01:40:20.109Z,5.83
2023-05-15T01:42:55.276Z,6.57
2023-05-15T01:45:26.040Z,6.53
2023-05-15T01:47:56.920Z,7.20
2023-05-15T01:50:26.067Z,7.40
2023-05-15T01:52:59.430Z,6.33
2023-05-15T01:55:28.943Z,7.37
2023-05-15T01:58:01.542Z,7.50
2023-05-15T02:00:30.396Z,7.97
2023-05-15T02:02:59.798Z,8.00
2023-05-15T02:05:28.183Z,7.93
2023-05-15T02:07:56.377Z,8.73
2023-05-15T02:10:24.738Z,9.30
2023-05-15T02:12:53.982Z,8.97
2023-05-15T02:15:24.485Z,9.30
2023-05-15T02:17:52.434Z,9.00
2023-05-15T02:20:20.245Z,10.03
2023-05-15T02:22:47.947Z,10.03
2023-05-15T02:25:16.042Z,10.00
2023-05-15T02:27:49.262Z,10.60
2023-05-15T02:30:33.256Z,10.77
2023-05-15T02:33:12.226Z,10.53
2023-05-15T02:35:52.209Z,10.97
2023-05-15T02:38:26.266Z,11.77
2023-05-15T02:40:56.486Z,12.20
2023-05-15T02:43:25.978Z,12.60
2023-05-15T02:45:57.253Z,12.80
2023-05-15T02:48:26.271Z,12.73
2023-05-15T02:50:54.418Z,13.00
2023-05-15T02:53:22.244Z,13.27
2023-05-15T02:55:50.036Z,13.20
2023-05-15T02:58:17.888Z,13.10
2023-05-15T03:00:45.613Z,13.27
2023-05-15T03:03:14.705Z,13.63
2023-05-15T03:05:42.636Z,14.77
2023-05-15T03:08:10.457Z,14.47
2023-05-15T03:10:38.218Z,15.13
2023-05-15T03:13:06.340Z,15.27
2023-05-15T03:15:34.100Z,14.20
2023-05-15T03:18:01.849Z,14.57
2023-05-15T03:20:30.995Z,14.40
2023-05-15T03:22:58.734Z,13.87
2023-05-15T03:25:27.005Z,13.07
2023-05-15T03:27:55.066Z,12.77
2023-05-15T03:30:22.810Z,13.33
2023-05-15T03:32:50.997Z,14.17
2023-05-15T03:35:18.885Z,49.03
2023-05-15T03:37:47.983Z,33.53
2023-05-15T03:40:15.794Z,14.70
2023-05-15T03:42:43.526Z,15.47
2023-05-15T03:45:11.350Z,14.17
2023-05-15T03:47:39.139Z,14.87
2023-05-15T03:50:07.908Z,14.93
2023-05-15T03:52:35.827Z,13.57
2023-05-15T03:55:06.067Z,14.30
2023-05-15T03:57:35.552Z,13.73
2023-05-15T04:00:07.463Z,13.57
2023-05-15T04:02:35.264Z,14.23
2023-05-15T04:05:03.520Z,12.70
2023-05-15T04:07:31.297Z,12.63
2023-05-15T04:10:01.419Z,12.80
2023-05-15T04:12:30.731Z,12.33
2023-05-15T04:15:13.953Z,13.03
2023-05-15T04:17:41.732Z,12.70
2023-05-15T04:20:11.098Z,11.90
2023-05-15T04:22:38.980Z,12.60
2023-05-15T04:25:07.978Z,12.60
2023-05-15T04:27:37.312Z,17.63
2023-05-15T04:30:05.890Z,48.07
2023-05-15T04:32:33.915Z,18.33
2023-05-15T04:35:01.730Z,11.27
2023-05-15T04:37:29.577Z,11.67
2023-05-15T04:39:57.260Z,10.27
2023-05-15T04:42:25.338Z,10.37
2023-05-15T04:44:54.501Z,11.03
2023-05-15T04:47:22.400Z,11.00
2023-05-15T04:49:50.243Z,11.00
2023-05-15T04:52:18.297Z,9.37
2023-05-15T04:54:46.129Z,9.33
2023-05-15T04:57:13.849Z,9.40
2023-05-15T04:59:41.558Z,8.53
2023-05-15T05:02:11.615Z,9.23
2023-05-15T05:04:39.332Z,9.97
2023-05-15T05:07:07.051Z,9.93
2023-05-15T05:09:35.588Z,9.23
2023-05-15T05:12:03.403Z,8.60
2023-05-15T05:14:31.556Z,10.87
2023-05-15T05:16:59.302Z,9.80
2023-05-15T05:19:29.100Z,9.90
2023-05-15T05:21:58.406Z,9.77
2023-05-15T05:24:26.248Z,10.73
2023-05-15T05:26:54.580Z,10.53
2023-05-15T05:29:22.278Z,10.43
2023-05-15T05:31:50.214Z,10.27
2023-05-15T05:34:18.074Z,9.43
2023-05-15T05:36:47.141Z,9.87
2023-05-15T05:39:15.439Z,10.73
2023-05-15T05:41:43.146Z,14.70
2023-05-15T05:44:10.906Z,11.87
2023-05-15T05:46:38.733Z,10.47
2023-05-15T05:49:06.503Z,10.10
2023-05-15T05:51:36.630Z,10.07
2023-05-15T05:54:05.946Z,10.30
2023-05-15T05:56:33.667Z,10.97
2023-05-15T05:59:02.035Z,10.03
2023-05-15T06:01:30.607Z,9.87
2023-05-15T06:03:58.646Z,9.70
2023-05-15T06:06:26.725Z,9.77
2023-05-15T06:08:56.509Z,9.50
2023-05-15T06:11:25.916Z,9.40
2023-05-15T06:13:53.709Z,9.70
2023-05-15T06:16:22.777Z,8.73
2023-05-15T06:18:51.105Z,9.17
2023-05-15T06:21:18.902Z,9.00
2023-05-15T06:23:46.615Z,8.33
2023-05-15T06:26:14.513Z,8.23
2023-05-15T06:28:43.596Z,8.23
2023-05-15T06:31:11.479Z,8.17
2023-05-15T06:33:39.154Z,8.37
2023-05-15T06:36:07.322Z,7.23
2023-05-15T06:38:35.063Z,7.13
2023-05-15T06:41:02.864Z,7.27
2023-05-15T06:43:30.564Z,7.30
2023-05-15T06:45:59.633Z,7.20
2023-05-15T06:48:27.338Z,6.70
2023-05-15T06:50:55.567Z,7.23
2023-05-15T06:53:23.294Z,7.17
2023-05-15T06:55:51.044Z,7.37
2023-05-15T06:58:18.956Z,7.70
2023-05-15T07:00:46.720Z,8.37
2023-05-15T07:03:16.784Z,9.00
2023-05-15T07:05:44.556Z,8.77
2023-05-15T07:08:12.251Z,8.40
2023-05-15T07:10:40.012Z,8.33
2023-05-15T07:13:07.740Z,7.83
2023-05-15T07:15:35.487Z,7.80
2023-05-15T07:18:03.421Z,8.90
2023-05-15T07:20:34.983Z,8.13
2023-05-15T07:23:03.062Z,8.47
2023-05-15T07:25:31.115Z,8.43
2023-05-15T07:27:58.821Z,8.37
2023-05-15T07:30:26.983Z,8.47
2023-05-15T07:32:55.108Z,8.40
2023-05-15T07:35:23.261Z,8.93
2023-05-15T07:37:52.585Z,8.27
2023-05-15T07:40:20.321Z,8.40
2023-05-15T07:42:48.124Z,8.93
2023-05-15T07:45:16.236Z,8.23
2023-05-15T07:47:46.823Z,8.63
2023-05-15T07:50:14.776Z,8.27
2023-05-15T07:52:43.105Z,7.90
2023-05-15T07:55:12.825Z,8.43
2023-05-15T07:57:40.888Z,8.10
2023-05-15T08:00:13.371Z,7.77
2023-05-15T08:02:42.617Z,8.77
2023-05-15T08:05:10.790Z,7.03
2023-05-15T08:07:38.651Z,7.67
2023-05-15T08:10:07.546Z,8.40
2023-05-15T08:12:36.638Z,8.13
2023-05-15T08:15:04.992Z,7.60
2023-05-15T08:17:32.823Z,7.27
2023-05-15T08:20:00.588Z,7.20
2023-05-15T08:22:30.332Z,7.20
2023-05-15T08:24:58.143Z,7.07
2023-05-15T08:27:25.859Z,6.57
2023-05-15T08:29:55.164Z,6.83
2023-05-15T08:32:23.017Z,7.00
2023-05-15T08:34:50.738Z,7.20
2023-05-15T08:37:18.542Z,7.10
2023-05-15T08:39:46.243Z,7.20
2023-05-15T08:42:21.247Z,7.37
2023-05-15T08:44:49.417Z,6.90
2023-05-15T08:47:20.582Z,6.47
2023-05-15T08:49:55.484Z,6.60
2023-05-15T08:52:23.687Z,7.37
2023-05-15T08:54:51.741Z,7.00
2023-05-15T08:57:20.003Z,6.83
2023-05-15T08:59:47.989Z,7.00
2023-05-15T09:02:18.184Z,7.60
2023-05-15T09:04:45.880Z,6.60
2023-05-15T09:07:13.689Z,7.30
2023-05-15T09:09:43.441Z,7.33
2023-05-15T09:12:12.359Z,7.60
2023-05-15T09:14:40.215Z,6.93
2023-05-15T09:17:08.561Z,7.30
2023-05-15T09:19:39.988Z,7.43
2023-05-15T09:22:18.205Z,6.80
2023-05-15T09:24:48.122Z,7.50
2023-05-15T09:27:16.141Z,6.93
2023-05-15T09:29:43.924Z,6.90
2023-05-15T09:32:13.016Z,7.80
2023-05-15T09:34:43.505Z,9.10
2023-05-15T09:37:13.770Z,7.40
2023-05-15T09:39:43.467Z,6.67
2023-05-15T09:42:12.898Z,6.50
2023-05-15T09:44:43.783Z,6.30
2023-05-15T09:47:12.200Z,6.60
2023-05-15T09:49:40.129Z,7.23
2023-05-15T09:52:11.082Z,6.63
2023-05-15T09:54:39.419Z,6.57
2023-05-15T09:57:11.515Z,6.90
2023-05-15T09:59:44.805Z,6.77
2023-05-15T10:02:15.408Z,8.13
2023-05-15T10:04:43.163Z,7.20
2023-05-15T10:07:13.006Z,6.87
2023-05-15T10:09:41.199Z,7.03
2023-05-15T10:12:10.406Z,6.57
2023-05-15T10:14:38.394Z,6.87
2023-05-15T10:17:06.292Z,7.20
2023-05-15T10:19:35.875Z,7.20
2023-05-15T10:22:06.334Z,6.93
2023-05-15T10:24:36.912Z,7.17
2023-05-15T10:27:06.197Z,6.73
2023-05-15T10:29:34.912Z,6.30
2023-05-15T10:32:03.183Z,6.07
2023-05-15T10:34:31.872Z,6.13
2023-05-15T10:37:00.577Z,6.57
2023-05-15T10:39:30.012Z,6.47
2023-05-15T10:42:00.772Z,6.40
2023-05-15T10:44:28.454Z,6.13
2023-05-15T10:46:56.894Z,6.40
2023-05-15T10:49:24.726Z,6.83
2023-05-15T10:51:53.845Z,6.70
2023-05-15T10:54:23.103Z,6.67
2023-05-15T10:56:52.271Z,6.40
2023-05-15T10:59:21.647Z,6.27
2023-05-15T11:01:49.386Z,6.07
2023-05-15T11:04:19.285Z,6.80
2023-05-15T11:06:49.474Z,7.30
2023-05-15T11:09:36.485Z,7.00
2023-05-15T11:12:05.491Z,6.57
2023-05-15T11:14:37.359Z,6.97
2023-05-15T11:17:07.554Z,7.50
2023-05-15T11:19:58.727Z,7.20
2023-05-15T11:22:32.497Z,7.20
2023-05-15T11:25:02.175Z,6.93
2023-05-15T11:27:32.100Z,6.57
2023-05-15T11:30:12.018Z,6.70
2023-05-15T11:33:00.815Z,7.37
2023-05-15T11:35:30.761Z,6.93
2023-05-15T11:37:59.927Z,6.50
2023-05-15T11:40:29.618Z,6.63
2023-05-15T11:43:08.810Z,6.60
2023-05-15T11:45:39.659Z,6.43
2023-05-15T11:48:08.987Z,6.30
2023-05-15T11:50:36.816Z,6.80
2023-05-15T11:53:06.408Z,6.93
2023-05-15T11:55:35.580Z,6.70
2023-05-15T11:58:04.292Z,6.63
2023-05-15T12:00:32.797Z,6.80
2023-05-15T12:03:04.682Z,7.33
2023-05-15T12:05:32.572Z,7.27
2023-05-15T12:08:02.008Z,6.77
2023-05-15T12:10:31.375Z,6.67
2023-05-15T12:12:59.994Z,7.00
2023-05-15T12:15:28.066Z,7.00
2023-05-15T12:17:55.798Z,6.70
2023-05-15T12:20:25.185Z,5.97
2023-05-15T12:22:53.113Z,7.20
2023-05-15T12:25:21.047Z,6.03
2023-05-15T12:27:48.979Z,6.37
2023-05-15T12:30:16.856Z,6.57
2023-05-15T12:32:44.966Z,6.77
2023-05-15T12:35:12.953Z,6.60
2023-05-15T12:37:42.839Z,7.27
2023-05-15T12:40:12.038Z,7.20
2023-05-15T12:42:41.525Z,7.00
2023-05-15T12:45:16.350Z,7.50
2023-05-15T12:47:45.737Z,7.40
2023-05-15T12:50:17.205Z,8.00
2023-05-15T12:52:51.977Z,7.17
2023-05-15T12:55:23.966Z,7.50
2023-05-15T12:57:51.963Z,7.13
2023-05-15T13:00:21.537Z,7.00
2023-05-15T13:02:51.306Z,7.67
2023-05-15T13:05:19.289Z,7.40
2023-05-15T13:07:46.975Z,7.10
2023-05-15T13:10:16.519Z,6.70
2023-05-15T13:12:45.967Z,7.10
2023-05-15T13:15:26.225Z,7.87
2023-05-15T13:17:56.848Z,7.63
2023-05-15T13:20:25.427Z,7.70
2023-05-15T13:22:53.404Z,8.07
2023-05-15T13:25:23.168Z,7.27
2023-05-15T13:27:51.654Z,8.43
2023-05-15T13:30:20.435Z,6.67
2023-05-15T13:32:48.196Z,7.00
2023-05-15T13:35:16.534Z,6.67
2023-05-15T13:37:44.802Z,6.87
2023-05-15T13:40:13.823Z,6.90
2023-05-15T13:42:44.241Z,7.10
2023-05-15T13:45:14.099Z,7.40
2023-05-15T13:47:47.681Z,6.97
2023-05-15T13:50:16.783Z,7.47
2023-05-15T13:52:45.493Z,8.47
2023-05-15T13:55:13.276Z,7.80
2023-05-15T13:57:43.428Z,7.20
2023-05-15T14:00:13.590Z,8.40
2023-05-15T14:02:43.000Z,7.20
2023-05-15T14:05:12.360Z,6.63
2023-05-15T14:07:40.895Z,7.13
2023-05-15T14:10:09.958Z,7.53
2023-05-15T14:12:38.324Z,6.73
2023-05-15T14:15:11.237Z,6.37
2023-05-15T14:17:39.492Z,6.87
2023-05-15T14:20:10.174Z,6.50
2023-05-15T14:22:38.233Z,6.23
2023-05-15T14:25:07.230Z,6.13
2023-05-15T14:27:35.281Z,13.00
2023-05-15T14:30:03.510Z,6.87
2023-05-15T14:32:32.721Z,6.17
2023-05-15T14:35:00.609Z,6.00
2023-05-15T14:37:28.531Z,6.10
2023-05-15T14:39:56.350Z,5.83
2023-05-15T14:42:24.097Z,7.40
2023-05-15T14:44:51.836Z,7.03
2023-05-15T14:47:19.642Z,6.63
2023-05-15T14:49:48.899Z,13.67
2023-05-15T14:52:16.664Z,5.97
2023-05-15T14:54:47.437Z,6.33
2023-05-15T14:57:20.441Z,6.37
2023-05-15T14:59:54.125Z,6.10
2023-05-15T15:02:21.935Z,6.20
2023-05-15T15:04:53.564Z,6.77
2023-05-15T15:07:21.560Z,5.97
2023-05-15T15:09:49.318Z,6.57
2023-05-15T15:12:17.527Z,6.13
2023-05-15T15:14:45.287Z,6.10
2023-05-15T15:17:13.173Z,6.83
2023-05-15T15:19:40.973Z,6.43
2023-05-15T15:22:10.138Z,6.30
2023-05-15T15:24:37.938Z,10.70
2023-05-15T15:27:06.949Z,13.77
2023-05-15T15:29:34.776Z,9.50
2023-05-15T15:32:02.927Z,5.83
2023-05-15T15:34:30.825Z,5.23
2023-05-15T15:36:58.578Z,5.40
2023-05-15T15:39:27.700Z,4.93
2023-05-15T15:41:55.481Z,5.43
2023-05-15T15:44:23.270Z,4.67
2023-05-15T15:46:51.022Z,5.23
2023-05-15T15:49:18.824Z,5.20
2023-05-15T15:51:46.620Z,4.70
2023-05-15T15:54:14.379Z,5.20
2023-05-15T15:56:43.542Z,5.37
2023-05-15T15:59:11.353Z,4.93
2023-05-15T16:01:39.205Z,4.83
2023-05-15T16:04:07.093Z,4.93
2023-05-15T16:06:35.408Z,5.40
2023-05-15T16:09:03.437Z,5.33
2023-05-15T16:11:31.266Z,5.20
2023-05-15T16:14:00.406Z,4.70
2023-05-15T16:16:28.227Z,4.87
2023-05-15T16:18:56.076Z,4.83
2023-05-15T16:21:23.819Z,5.73
2023-05-15T16:23:51.560Z,5.20
2023-05-15T16:26:19.332Z,6.87
2023-05-15T16:28:47.106Z,6.27
2023-05-15T16:31:17.037Z,6.10
2023-05-15T16:33:44.894Z,5.93
2023-05-15T16:36:12.889Z,6.03
2023-05-15T16:38:40.706Z,6.20
2023-05-15T16:41:08.547Z,6.70
2023-05-15T16:43:38.130Z,5.80
2023-05-15T16:46:06.246Z,5.90
2023-05-15T16:48:35.466Z,6.30
2023-05-15T16:51:03.325Z,7.87
2023-05-15T16:53:31.135Z,7.60
2023-05-15T16:55:58.954Z,8.53
2023-05-15T16:58:26.716Z,6.90
2023-05-15T17:00:54.480Z,7.63
2023-05-15T17:03:22.392Z,6.67
2023-05-15T17:05:51.864Z,7.23
2023-05-15T17:08:20.154Z,7.20
2023-05-15T17:10:47.917Z,46.43
2023-05-15T17:13:15.889Z,7.43
2023-05-15T17:15:43.896Z,6.87
2023-05-15T17:18:11.710Z,6.90
2023-05-15T17:20:39.474Z,7.20
2023-05-15T17:23:08.626Z,7.00
2023-05-15T17:25:36.391Z,6.90
2023-05-15T17:28:04.157Z,7.37
2023-05-15T17:30:32.028Z,6.83
2023-05-15T17:33:00.395Z,6.80
2023-05-15T17:35:30.557Z,7.20
2023-05-15T17:37:59.807Z,7.80
2023-05-15T17:40:28.941Z,6.70
2023-05-15T17:42:56.650Z,6.87
2023-05-15T17:45:24.666Z,6.90
2023-05-15T17:47:52.668Z,6.53
2023-05-15T17:50:20.423Z,7.23
2023-05-15T17:52:48.531Z,6.70
2023-05-15T17:55:16.443Z,6.90
2023-05-15T17:57:45.710Z,7.40
2023-05-15T18:00:14.625Z,11.53
2023-05-15T18:02:45.534Z,31.20
2023-05-15T18:05:13.356Z,10.90
2023-05-15T18:07:42.284Z,7.70
2023-05-15T18:10:10.935Z,6.97
2023-05-15T18:12:38.742Z,7.43
2023-05-15T18:15:09.065Z,6.83
2023-05-15T18:17:36.924Z,7.77
2023-05-15T18:20:06.086Z,6.87
2023-05-15T18:22:33.851Z,6.90
2023-05-15T18:25:02.086Z,7.23
2023-05-15T18:27:30.359Z,7.50
2023-05-15T18:29:58.289Z,7.50
2023-05-15T18:32:27.465Z,7.27
2023-05-15T18:34:55.257Z,7.93
2023-05-15T18:37:23.010Z,7.30
2023-05-15T18:39:50.833Z,8.20
2023-05-15T18:42:18.615Z,7.53
2023-05-15T18:44:46.343Z,7.73
2023-05-15T18:47:14.315Z,7.73
2023-05-15T18:49:43.526Z,7.50
2023-05-15T18:52:11.450Z,7.60
2023-05-15T18:54:39.538Z,7.07
2023-05-15T18:57:08.161Z,7.50
2023-05-15T18:59:35.931Z,7.53
2023-05-15T19:02:03.713Z,7.87
2023-05-15T19:04:31.582Z,8.13
2023-05-15T19:07:00.704Z,18.43
2023-05-15T19:09:28.429Z,7.70
2023-05-15T19:11:56.485Z,8.77
2023-05-15T19:14:24.214Z,7.80
2023-05-15T19:16:52.046Z,8.20
2023-05-15T19:19:19.972Z,8.00
2023-05-15T19:21:47.941Z,7.77
2023-05-15T19:24:17.160Z,7.03
2023-05-15T19:26:44.874Z,7.50
2023-05-15T19:29:12.628Z,7.93
2023-05-15T19:31:40.896Z,7.57
2023-05-15T19:34:08.684Z,7.87
2023-05-15T19:36:36.492Z,7.10
2023-05-15T19:39:04.211Z,7.97
2023-05-15T19:41:33.640Z,7.00
2023-05-15T19:44:02.252Z,7.70
2023-05-15T19:46:30.031Z,7.33
2023-05-15T19:48:57.800Z,8.23
2023-05-15T19:51:25.528Z,8.30
2023-05-15T19:53:53.372Z,8.10
2023-05-15T19:56:22.699Z,7.23
2023-05-15T19:58:51.913Z,8.60
2023-05-15T20:01:20.341Z,7.90
2023-05-15T20:03:48.233Z,8.03
2023-05-15T20:06:16.062Z,8.33
2023-05-15T20:08:43.792Z,8.50
2023-05-15T20:11:11.498Z,8.53
2023-05-15T20:13:39.240Z,9.43
2023-05-15T20:16:10.710Z,9.60
2023-05-15T20:18:39.642Z,9.77
2023-05-15T20:21:07.586Z,9.47
2023-05-15T20:23:35.448Z,9.77
2023-05-15T20:26:04.355Z,9.33
2023-05-15T20:28:32.123Z,9.43
2023-05-15T20:31:01.332Z,9.20
2023-05-15T20:33:30.482Z,8.67
2023-05-15T20:35:58.551Z,9.60
2023-05-15T20:38:26.388Z,8.33
2023-05-15T20:40:54.098Z,10.63
2023-05-15T20:43:21.920Z,10.03
2023-05-15T20:45:49.759Z,11.60
2023-05-15T20:48:17.700Z,11.60
2023-05-15T20:50:47.005Z,12.50
2023-05-15T20:53:15.017Z,12.07
2023-05-15T20:55:42.896Z,12.20
2023-05-15T20:58:10.786Z,10.60
2023-05-15T21:00:38.845Z,12.80
2023-05-15T21:03:07.148Z,10.77
2023-05-15T21:05:35.193Z,11.03
2023-05-15T21:08:04.548Z,11.80
2023-05-15T21:10:32.366Z,10.70
2023-05-15T21:13:00.250Z,11.17
2023-05-15T21:15:28.161Z,11.40
2023-05-15T21:17:56.035Z,11.30
2023-05-15T21:20:24.430Z,10.73
2023-05-15T21:22:52.419Z,11.40
2023-05-15T21:25:21.791Z,11.70
2023-05-15T21:27:49.793Z,11.80
2023-05-15T21:30:17.811Z,10.77
2023-05-15T21:32:45.737Z,12.53
2023-05-15T21:35:13.668Z,11.90
2023-05-15T21:37:41.519Z,13.27
2023-05-15T21:40:12.964Z,13.13
2023-05-15T21:42:43.107Z,13.33
2023-05-15T21:45:11.830Z,13.10
2023-05-15T21:47:39.741Z,13.37
2023-05-15T21:50:08.565Z,13.50
2023-05-15T21:52:36.409Z,12.90
2023-05-15T21:55:04.950Z,11.67
2023-05-15T21:57:32.869Z,12.80
2023-05-15T22:00:02.641Z,12.83
2023-05-15T22:02:30.745Z,13.00
2023-05-15T22:04:58.667Z,12.70
2023-05-15T22:07:26.535Z,13.53
2023-05-15T22:09:54.422Z,13.27
2023-05-15T22:12:22.493Z,14.17
2023-05-15T22:14:58.343Z,15.20
2023-05-15T22:17:29.258Z,15.80
2023-05-15T22:20:06.408Z,15.27
2023-05-15T22:22:34.609Z,14.70
2023-05-15T22:25:02.494Z,14.87
2023-05-15T22:27:30.374Z,15.20
2023-05-15T22:29:58.320Z,15.20
2023-05-15T22:32:26.456Z,16.33
2023-05-15T22:34:56.365Z,15.63
2023-05-15T22:37:24.235Z,15.47
2023-05-15T22:39:52.308Z,16.43
2023-05-15T22:42:20.379Z,16.73
2023-05-15T22:44:48.325Z,16.10
2023-05-15T22:47:16.160Z,16.77
2023-05-15T22:49:44.027Z,16.00
2023-05-15T22:52:14.054Z,17.17
2023-05-15T22:54:42.134Z,18.83
2023-05-15T22:57:10.008Z,18.00
2023-05-15T22:59:38.011Z,18.33
2023-05-15T23:02:06.064Z,18.77
2023-05-15T23:04:33.906Z,19.23
2023-05-15T23:07:01.778Z,18.77
2023-05-15T23:09:31.028Z,18.47
2023-05-15T23:12:00.635Z,18.27
2023-05-15T23:14:28.608Z,18.17
2023-05-15T23:16:56.444Z,18.80
2023-05-15T23:19:24.292Z,20.27
2023-05-15T23:21:52.167Z,22.10
2023-05-15T23:24:19.972Z,21.27
2023-05-15T23:26:49.198Z,21.80
2023-05-15T23:29:17.016Z,21.13
2023-05-15T23:31:45.107Z,18.77
2023-05-15T23:34:13.015Z,17.80
2023-05-15T23:36:40.871Z,16.50
2023-05-15T23:39:09.173Z,13.83
2023-05-15T23:41:37.001Z,12.47
2023-05-15T23:44:06.495Z,11.37
2023-05-15T23:46:35.571Z,12.37
2023-05-15T23:49:03.462Z,10.50
2023-05-15T23:51:31.324Z,9.83
2023-05-15T23:53:59.119Z,9.13
2023-05-15T23:56:26.935Z,9.63
2023-05-15T23:58:54.789Z,9.20
